Arcadia, Wisconsin
Current Conditions -  °F | °C
As of 8:15 AM on Thursday 23 Oct 2014 (Local Time) from KONA Reporting Station
Light Rain Light Rain  
Wind Chill: 48°   Ceiling: 2500
Heat Index: 48°   Visibility: 5mi
Dew Point: 46°   Wind: 0mph
Humidity: 93%   Direction: NA
Pressure: 30.04"   Gusts: NA
Location:  44.25°N, 91.5°W
Report Text: KONA 231315Z AUTO 00000KT 5SM -RA OVC025 09/08 A3004 RMK AO2
Loading
Personal Weather Stations






























Interactive Weather Map
Tropical Storm Tracking
New forecast layout! Learn more

10-Day Weather Forecast

Advertisements
Track Severe Weather on mobile